createdAt,value
2022-08-03T00:01:00.407Z,22.66
2022-08-03T00:01:54.547Z,22.66
2022-08-03T00:02:54.247Z,22.66
2022-08-03T00:03:54.084Z,22.67
2022-08-03T00:04:54.098Z,22.67
2022-08-03T00:06:04.656Z,22.67
2022-08-03T00:07:01.945Z,22.68
2022-08-03T00:07:54.377Z,22.68
2022-08-03T00:08:54.351Z,22.69
2022-08-03T00:09:54.030Z,22.69
2022-08-03T00:10:54.004Z,22.69
2022-08-03T00:12:00.462Z,22.70
2022-08-03T00:12:54.010Z,22.70
2022-08-03T00:13:53.985Z,22.70
2022-08-03T00:14:54.028Z,22.70
2022-08-03T00:15:54.992Z,22.70
2022-08-03T00:17:00.276Z,22.71
2022-08-03T00:17:54.194Z,22.71
2022-08-03T00:18:53.924Z,22.70
2022-08-03T00:19:53.906Z,22.70
2022-08-03T00:20:53.877Z,22.70
2022-08-03T00:22:00.198Z,22.69
2022-08-03T00:22:53.871Z,22.69
2022-08-03T00:23:54.201Z,22.68
2022-08-03T00:24:53.887Z,22.67
2022-08-03T00:25:54.108Z,22.67
2022-08-03T00:27:00.101Z,22.66
2022-08-03T00:27:53.840Z,22.65
2022-08-03T00:28:53.858Z,22.64
2022-08-03T00:30:00.060Z,22.62
2022-08-03T00:30:55.260Z,22.60
2022-08-03T00:32:00.621Z,22.59
2022-08-03T00:32:53.986Z,22.57
2022-08-03T00:33:59.567Z,22.55
2022-08-03T00:34:57.547Z,22.53
2022-08-03T00:35:53.797Z,22.51
2022-08-03T00:36:53.783Z,22.49
2022-08-03T00:37:59.959Z,22.47
2022-08-03T00:38:53.677Z,22.45
2022-08-03T00:39:53.702Z,22.43
2022-08-03T00:40:55.131Z,22.42
2022-08-03T00:41:53.681Z,22.40
2022-08-03T00:42:53.646Z,22.39
2022-08-03T00:43:59.904Z,22.37
2022-08-03T00:44:53.569Z,22.37
2022-08-03T00:45:53.731Z,22.36
2022-08-03T00:46:53.841Z,22.36
2022-08-03T00:47:53.559Z,22.36
2022-08-03T00:48:54.517Z,22.37
2022-08-03T00:50:00.727Z,22.37
2022-08-03T00:50:54.884Z,22.38
2022-08-03T00:51:53.811Z,22.40
2022-08-03T00:52:53.494Z,22.41
2022-08-03T00:53:53.486Z,22.43
2022-08-03T00:54:53.526Z,22.45
2022-08-03T00:55:59.717Z,22.47
2022-08-03T00:56:59.870Z,22.49
2022-08-03T00:57:56.086Z,22.51
2022-08-03T00:58:54.390Z,22.53
2022-08-03T00:59:53.432Z,22.54
2022-08-03T01:00:54.402Z,22.56
2022-08-03T01:01:59.751Z,22.57
2022-08-03T01:02:53.351Z,22.58
2022-08-03T01:03:53.367Z,22.59
2022-08-03T01:04:54.296Z,22.60
2022-08-03T01:05:53.322Z,22.60
2022-08-03T01:06:53.602Z,22.60
2022-08-03T01:07:59.694Z,22.60
2022-08-03T01:08:53.299Z,22.60
2022-08-03T01:09:53.262Z,22.59
2022-08-03T01:10:53.254Z,22.59
2022-08-03T01:12:01.205Z,22.59
2022-08-03T01:12:54.811Z,22.58
2022-08-03T01:14:18.627Z,22.58
2022-08-03T01:14:55.592Z,22.57
2022-08-03T01:15:53.193Z,22.57
2022-08-03T01:16:53.486Z,22.56
2022-08-03T01:17:53.186Z,22.56
2022-08-03T01:18:59.440Z,22.55
2022-08-03T01:19:53.475Z,22.55
2022-08-03T01:20:53.420Z,22.55
2022-08-03T01:21:53.132Z,22.55
2022-08-03T01:22:53.159Z,22.55
2022-08-03T01:23:53.097Z,22.55
2022-08-03T01:24:59.424Z,22.55
2022-08-03T01:25:54.744Z,22.54
2022-08-03T01:26:53.124Z,22.54
2022-08-03T01:27:53.049Z,22.54
2022-08-03T01:28:54.026Z,22.53
2022-08-03T01:29:59.345Z,22.53
2022-08-03T01:30:53.307Z,22.52
2022-08-03T01:32:58.963Z,22.52
2022-08-03T01:33:00.877Z,22.51
2022-08-03T01:33:54.881Z,22.51
2022-08-03T01:34:59.365Z,22.50
2022-08-03T01:35:59.245Z,22.50
2022-08-03T01:36:53.221Z,22.49
2022-08-03T01:37:52.947Z,22.49
2022-08-03T01:38:53.184Z,22.49
2022-08-03T01:39:53.250Z,22.49
2022-08-03T01:41:00.163Z,22.49
2022-08-03T01:41:52.959Z,22.49
2022-08-03T01:42:52.859Z,22.49
2022-08-03T01:44:28.397Z,22.49
2022-08-03T01:44:53.857Z,22.49
2022-08-03T01:45:52.818Z,22.50
2022-08-03T01:46:59.123Z,22.50
2022-08-03T01:47:52.843Z,22.50
2022-08-03T01:48:53.121Z,22.50
2022-08-03T01:49:53.866Z,22.51
2022-08-03T01:50:53.148Z,22.51
2022-08-03T01:52:02.751Z,22.51
2022-08-03T01:53:01.693Z,22.52
2022-08-03T01:53:52.748Z,22.52
2022-08-03T01:54:52.705Z,22.52
2022-08-03T01:55:53.808Z,22.53
2022-08-03T01:56:53.575Z,22.53
2022-08-03T01:58:05.892Z,22.54
2022-08-03T01:58:54.951Z,22.55
2022-08-03T01:59:52.677Z,22.55
2022-08-03T02:00:53.683Z,22.55
2022-08-03T02:02:25.198Z,22.56
2022-08-03T02:02:53.846Z,22.56
2022-08-03T02:04:01.167Z,22.57
2022-08-03T02:04:52.644Z,22.57
2022-08-03T02:06:11.504Z,22.57
2022-08-03T02:07:03.161Z,22.58
2022-08-03T02:07:52.529Z,22.58
2022-08-03T02:08:52.539Z,22.59
2022-08-03T02:09:58.805Z,22.60
2022-08-03T02:10:53.778Z,22.61
2022-08-03T02:11:53.721Z,22.61
2022-08-03T02:12:52.487Z,22.62
2022-08-03T02:13:52.563Z,22.63
2022-08-03T02:14:52.446Z,22.64
2022-08-03T02:15:58.768Z,22.65
2022-08-03T02:16:52.484Z,22.65
2022-08-03T02:17:53.027Z,22.66
2022-08-03T02:18:53.378Z,22.67
2022-08-03T02:19:52.411Z,22.68
2022-08-03T02:20:58.708Z,22.69
2022-08-03T02:21:56.469Z,22.69
2022-08-03T02:22:53.876Z,22.70
2022-08-03T02:23:52.356Z,22.70
2022-08-03T02:24:53.497Z,22.70
2022-08-03T02:25:53.309Z,22.71
2022-08-03T02:26:58.645Z,22.71
2022-08-03T02:27:52.296Z,22.71
2022-08-03T02:28:52.619Z,22.72
2022-08-03T02:29:53.272Z,22.72
2022-08-03T02:30:53.901Z,22.73
2022-08-03T02:31:52.299Z,22.73
2022-08-03T02:32:58.526Z,22.73
2022-08-03T02:33:52.231Z,22.73
2022-08-03T02:34:52.232Z,22.74
2022-08-03T02:35:52.464Z,22.74
2022-08-03T02:36:52.222Z,22.74
2022-08-03T02:37:59.433Z,22.74
2022-08-03T02:38:52.169Z,22.75
2022-08-03T02:39:53.091Z,22.75
2022-08-03T02:40:52.175Z,22.75
2022-08-03T02:41:53.067Z,22.76
2022-08-03T02:43:02.794Z,22.76
2022-08-03T02:44:05.698Z,22.76
2022-08-03T02:44:53.584Z,22.77
2022-08-03T02:45:52.130Z,22.77
2022-08-03T02:46:52.370Z,22.78
2022-08-03T02:47:53.915Z,22.78
2022-08-03T02:48:59.493Z,22.78
2022-08-03T02:49:53.104Z,22.79
2022-08-03T02:50:52.172Z,22.79
2022-08-03T02:51:52.307Z,22.79
2022-08-03T02:52:51.967Z,22.78
2022-08-03T02:53:51.982Z,22.79
2022-08-03T02:54:58.282Z,22.79
2022-08-03T02:55:51.953Z,22.79
2022-08-03T02:56:52.021Z,22.79
2022-08-03T02:57:52.252Z,22.79
2022-08-03T02:58:51.918Z,22.78
2022-08-03T02:59:51.923Z,22.78
2022-08-03T03:00:58.215Z,22.77
2022-08-03T03:01:51.969Z,22.77
2022-08-03T03:02:51.861Z,22.76
2022-08-03T03:03:52.108Z,22.74
2022-08-03T03:05:53.196Z,22.73
2022-08-03T03:05:59.882Z,22.72
2022-08-03T03:06:51.836Z,22.70
2022-08-03T03:07:53.169Z,22.69
2022-08-03T03:08:53.066Z,22.67
2022-08-03T03:09:52.860Z,22.66
2022-08-03T03:10:55.372Z,22.64
2022-08-03T03:11:58.074Z,22.62
2022-08-03T03:12:51.842Z,22.60
2022-08-03T03:13:51.725Z,22.58
2022-08-03T03:14:51.833Z,22.55
2022-08-03T03:15:52.148Z,22.53
2022-08-03T03:16:52.493Z,22.50
2022-08-03T03:17:59.542Z,22.48
2022-08-03T03:18:51.678Z,22.45
2022-08-03T03:19:52.638Z,22.43
2022-08-03T03:20:51.635Z,22.40
2022-08-03T03:21:51.900Z,22.38
2022-08-03T03:22:59.025Z,22.36
2022-08-03T03:23:52.395Z,22.35
2022-08-03T03:24:52.546Z,22.33
2022-08-03T03:25:51.566Z,22.31
2022-08-03T03:26:52.542Z,22.30
2022-08-03T03:27:51.526Z,22.29
2022-08-03T03:28:57.806Z,22.29
2022-08-03T03:29:51.568Z,22.28
2022-08-03T03:30:52.618Z,22.28
2022-08-03T03:31:51.495Z,22.28
2022-08-03T03:32:52.661Z,22.28
2022-08-03T03:33:51.466Z,22.29
2022-08-03T03:34:58.673Z,22.29
2022-08-03T03:35:53.836Z,22.29
2022-08-03T03:36:51.467Z,22.30
2022-08-03T03:37:51.455Z,22.30
2022-08-03T03:38:53.778Z,22.31
2022-08-03T03:39:57.806Z,22.31
2022-08-03T03:40:51.691Z,22.32
2022-08-03T03:41:51.721Z,22.33
2022-08-03T03:42:51.657Z,22.34
2022-08-03T03:43:51.684Z,22.34
2022-08-03T03:44:57.890Z,22.36
2022-08-03T03:45:51.605Z,22.37
2022-08-03T03:46:51.386Z,22.38
2022-08-03T03:47:51.593Z,22.39
2022-08-03T03:48:51.612Z,22.40
2022-08-03T03:49:51.312Z,22.41
2022-08-03T03:50:57.533Z,22.43
2022-08-03T03:51:51.289Z,22.44
2022-08-03T03:52:51.215Z,22.45
2022-08-03T03:53:52.426Z,22.46
2022-08-03T03:54:51.229Z,22.46
2022-08-03T03:55:59.740Z,22.47
2022-08-03T03:56:53.963Z,22.47
2022-08-03T03:57:51.290Z,22.47
2022-08-03T03:58:52.397Z,22.48
2022-08-03T03:59:51.176Z,22.48
2022-08-03T04:00:57.882Z,22.47
2022-08-03T04:01:58.956Z,22.47
2022-08-03T04:02:52.601Z,22.47
2022-08-03T04:03:51.137Z,22.46
2022-08-03T04:04:51.130Z,22.46
2022-08-03T04:05:57.365Z,22.46
2022-08-03T04:06:51.114Z,22.46
2022-08-03T04:07:51.484Z,22.46
2022-08-03T04:08:51.040Z,22.46
2022-08-03T04:09:51.580Z,22.46
2022-08-03T04:10:51.037Z,22.46
2022-08-03T04:11:57.297Z,22.45
2022-08-03T04:12:50.970Z,22.45
2022-08-03T04:13:50.968Z,22.44
2022-08-03T04:14:50.980Z,22.44
2022-08-03T04:15:50.964Z,22.44
2022-08-03T04:16:50.983Z,22.43
2022-08-03T04:17:57.555Z,22.42
2022-08-03T04:18:51.304Z,22.41
2022-08-03T04:19:50.899Z,22.41
2022-08-03T04:20:51.227Z,22.40
2022-08-03T04:21:51.180Z,22.40
2022-08-03T04:22:57.400Z,22.40
2022-08-03T04:23:52.106Z,22.41
2022-08-03T04:24:50.830Z,22.41
2022-08-03T04:25:51.149Z,22.42
2022-08-03T04:26:52.865Z,22.43
2022-08-03T04:28:19.747Z,22.43
2022-08-03T04:28:52.730Z,22.44
2022-08-03T04:29:51.829Z,22.44
2022-08-03T04:30:50.794Z,22.44
2022-08-03T04:31:50.790Z,22.43
2022-08-03T04:32:51.755Z,22.43
2022-08-03T04:33:57.121Z,22.43
2022-08-03T04:34:50.770Z,22.43
2022-08-03T04:36:01.146Z,22.43
2022-08-03T04:36:52.826Z,22.43
2022-08-03T04:37:50.674Z,22.43
2022-08-03T04:38:57.602Z,22.43
2022-08-03T04:39:50.676Z,22.43
2022-08-03T04:40:51.845Z,22.44
2022-08-03T04:42:08.335Z,22.44
2022-08-03T04:42:51.834Z,22.45
2022-08-03T04:43:56.953Z,22.46
2022-08-03T04:44:50.869Z,22.46
2022-08-03T04:45:51.761Z,22.47
2022-08-03T04:46:52.820Z,22.48
2022-08-03T04:47:50.844Z,22.49
2022-08-03T04:48:50.815Z,22.50
2022-08-03T04:49:56.910Z,22.51
2022-08-03T04:50:50.556Z,22.53
2022-08-03T04:51:50.548Z,22.54
2022-08-03T04:52:50.566Z,22.55
2022-08-03T04:53:50.509Z,22.57
2022-08-03T04:54:51.163Z,22.58
2022-08-03T04:55:58.900Z,22.60
2022-08-03T04:56:50.774Z,22.61
2022-08-03T04:57:50.449Z,22.63
2022-08-03T04:58:50.394Z,22.64
2022-08-03T04:59:50.365Z,22.66
2022-08-03T05:00:51.431Z,22.67
2022-08-03T05:01:56.703Z,22.68
2022-08-03T05:02:50.359Z,22.69
2022-08-03T05:03:50.341Z,22.70
2022-08-03T05:04:52.656Z,22.72
2022-08-03T05:06:01.872Z,22.73
2022-08-03T05:06:58.146Z,22.75
2022-08-03T05:07:50.555Z,22.77
2022-08-03T05:08:50.929Z,22.78
2022-08-03T05:09:53.037Z,22.80
2022-08-03T05:10:52.068Z,22.82
2022-08-03T05:11:57.117Z,22.84
2022-08-03T05:12:50.490Z,22.86
2022-08-03T05:13:56.503Z,22.88
2022-08-03T05:14:50.422Z,22.89
2022-08-03T05:15:50.983Z,22.91
2022-08-03T05:16:51.167Z,22.92
2022-08-03T05:17:56.516Z,22.94
2022-08-03T05:18:50.940Z,22.96
2022-08-03T05:19:50.197Z,22.98
2022-08-03T05:20:50.171Z,23.00
2022-08-03T05:21:52.928Z,23.01
2022-08-03T05:22:51.056Z,23.03
2022-08-03T05:23:56.375Z,23.05
2022-08-03T05:24:51.037Z,23.07
2022-08-03T05:25:50.334Z,23.09
2022-08-03T05:26:50.406Z,23.10
2022-08-03T05:27:50.337Z,23.12
2022-08-03T05:28:51.223Z,23.14
2022-08-03T05:29:56.382Z,23.16
2022-08-03T05:30:51.935Z,23.18
2022-08-03T05:31:50.977Z,23.20
2022-08-03T05:32:51.128Z,23.22
2022-08-03T05:33:50.054Z,23.24
2022-08-03T05:34:49.975Z,23.27
2022-08-03T05:36:03.020Z,23.29
2022-08-03T05:36:51.767Z,23.31
2022-08-03T05:37:54.799Z,23.33
2022-08-03T05:38:51.472Z,23.35
2022-08-03T05:39:49.897Z,23.37
2022-08-03T05:40:57.176Z,23.39
2022-08-03T05:41:50.230Z,23.41
2022-08-03T05:42:50.159Z,23.43
2022-08-03T05:43:50.989Z,23.45
2022-08-03T05:44:50.949Z,23.47
2022-08-03T05:45:50.089Z,23.49
2022-08-03T05:46:57.333Z,23.51
2022-08-03T05:47:49.845Z,23.53
2022-08-03T05:48:57.119Z,23.55
2022-08-03T05:49:49.788Z,23.58
2022-08-03T05:50:50.701Z,23.60
2022-08-03T05:51:59.998Z,23.63
2022-08-03T05:52:57.417Z,23.65
2022-08-03T05:53:49.755Z,23.67
2022-08-03T05:54:56.293Z,23.70
2022-08-03T05:55:55.387Z,23.72
2022-08-03T05:56:51.510Z,23.74
2022-08-03T05:57:49.731Z,23.77
2022-08-03T05:59:07.347Z,23.79
2022-08-03T05:59:54.588Z,23.81
2022-08-03T06:00:52.240Z,23.84
2022-08-03T06:01:51.280Z,23.86
2022-08-03T06:02:49.614Z,23.89
2022-08-03T06:03:49.628Z,23.91
2022-08-03T06:04:55.850Z,23.94
2022-08-03T06:05:59.883Z,23.96
2022-08-03T06:06:51.458Z,23.98
2022-08-03T06:07:50.731Z,24.01
2022-08-03T06:08:49.543Z,24.03
2022-08-03T06:10:37.132Z,24.06
2022-08-03T06:10:50.561Z,24.08
2022-08-03T06:11:49.573Z,24.11
2022-08-03T06:12:49.550Z,24.14
2022-08-03T06:13:49.489Z,24.16
2022-08-03T06:14:49.718Z,24.19
2022-08-03T06:15:55.763Z,24.21
2022-08-03T06:16:49.820Z,24.24
2022-08-03T06:17:49.419Z,24.27
2022-08-03T06:18:49.435Z,24.30
2022-08-03T06:19:49.418Z,24.33
2022-08-03T06:20:50.319Z,24.36
2022-08-03T06:21:55.761Z,24.39
2022-08-03T06:22:51.007Z,24.42
2022-08-03T06:23:54.743Z,24.44
2022-08-03T06:24:53.425Z,24.47
2022-08-03T06:25:50.815Z,24.50
2022-08-03T06:26:55.686Z,24.52
2022-08-03T06:27:49.346Z,24.55
2022-08-03T06:28:55.636Z,24.57
2022-08-03T06:29:49.598Z,24.60
2022-08-03T06:30:49.776Z,24.62
2022-08-03T06:31:50.090Z,24.65
2022-08-03T06:32:56.806Z,24.67
2022-08-03T06:34:33.865Z,24.70
2022-08-03T06:34:50.197Z,24.72
2022-08-03T06:35:50.207Z,24.74
2022-08-03T06:36:49.223Z,24.77
2022-08-03T06:37:49.210Z,24.79
2022-08-03T06:39:20.329Z,25.96
2022-08-03T06:40:24.246Z,25.54
2022-08-03T06:41:21.512Z,25.27
2022-08-03T06:42:19.374Z,25.13
2022-08-03T06:43:19.301Z,25.06
2022-08-03T06:44:27.994Z,25.03
2022-08-03T06:45:18.988Z,25.02
2022-08-03T06:46:25.904Z,25.03
2022-08-03T06:47:19.192Z,25.05
2022-08-03T06:48:19.023Z,25.07
2022-08-03T06:49:19.247Z,25.10
2022-08-03T06:50:26.521Z,25.13
2022-08-03T06:51:18.893Z,25.16
2022-08-03T06:52:38.095Z,25.19
2022-08-03T06:53:21.536Z,25.22
2022-08-03T06:54:18.954Z,25.24
2022-08-03T06:55:19.833Z,25.27
2022-08-03T06:56:25.251Z,25.30
2022-08-03T06:57:19.163Z,25.33
2022-08-03T06:58:19.114Z,25.36
2022-08-03T07:00:09.499Z,25.39
2022-08-03T07:00:21.065Z,25.42
2022-08-03T07:01:19.761Z,25.45
2022-08-03T07:02:28.292Z,25.48
2022-08-03T07:03:19.107Z,25.51
2022-08-03T07:04:19.992Z,25.55
2022-08-03T07:05:19.043Z,25.58
2022-08-03T07:06:26.917Z,25.60
2022-08-03T07:07:19.030Z,25.64
2022-08-03T07:08:33.357Z,25.67
2022-08-03T07:09:20.183Z,25.70
2022-08-03T07:10:18.687Z,25.73
2022-08-03T07:11:19.619Z,25.76
2022-08-03T07:12:19.071Z,25.78
2022-08-03T07:13:24.926Z,25.81
2022-08-03T07:14:18.920Z,25.84
2022-08-03T07:15:20.554Z,25.87
2022-08-03T07:16:20.602Z,25.90
2022-08-03T07:17:19.587Z,25.92
2022-08-03T07:18:28.296Z,25.95
2022-08-03T07:19:26.367Z,25.98
2022-08-03T07:20:25.022Z,26.01
2022-08-03T07:21:18.525Z,26.03
2022-08-03T07:22:18.805Z,26.06
2022-08-03T07:23:19.243Z,26.09
2022-08-03T07:24:25.179Z,26.11
2022-08-03T07:25:18.564Z,26.14
2022-08-03T07:26:18.478Z,26.17
2022-08-03T07:27:18.502Z,26.20
2022-08-03T07:28:18.500Z,26.24
2022-08-03T07:29:18.437Z,26.26
2022-08-03T07:30:24.706Z,26.30
2022-08-03T07:31:18.448Z,26.33
2022-08-03T07:32:18.867Z,26.35
2022-08-03T07:33:18.498Z,26.38
2022-08-03T07:34:18.396Z,26.41
2022-08-03T07:35:25.507Z,26.43
2022-08-03T07:36:18.589Z,26.46
2022-08-03T07:37:18.638Z,26.48
2022-08-03T07:38:21.073Z,26.50
2022-08-03T07:39:18.798Z,26.52
2022-08-03T07:40:25.129Z,26.54
2022-08-03T07:41:19.830Z,26.56
2022-08-03T07:42:18.913Z,26.58
2022-08-03T07:43:18.257Z,26.61
2022-08-03T07:44:19.198Z,26.62
2022-08-03T07:45:24.601Z,26.64
2022-08-03T07:46:18.240Z,26.67
2022-08-03T07:47:22.351Z,26.69
2022-08-03T07:48:18.189Z,26.72
2022-08-03T07:49:18.315Z,26.74
2022-08-03T07:50:25.355Z,26.77
2022-08-03T07:51:18.319Z,26.80
2022-08-03T07:52:18.456Z,26.83
2022-08-03T07:53:18.112Z,26.86
2022-08-03T07:54:18.469Z,26.89
2022-08-03T07:55:24.395Z,26.92
2022-08-03T07:56:18.070Z,26.95
2022-08-03T07:57:19.054Z,26.98
2022-08-03T07:58:23.659Z,27.01
2022-08-03T07:59:19.911Z,27.04
2022-08-03T08:00:26.047Z,27.07
2022-08-03T08:01:26.027Z,27.09
2022-08-03T08:03:11.746Z,28.25
2022-08-03T08:05:41.681Z,28.31
2022-08-03T08:06:38.733Z,27.89
2022-08-03T08:07:38.587Z,27.62
2022-08-03T08:08:38.764Z,27.48
2022-08-03T08:09:40.280Z,27.40
2022-08-03T08:11:10.488Z,28.45
2022-08-03T08:12:19.386Z,28.03
2022-08-03T08:13:17.015Z,27.76
2022-08-03T08:14:18.969Z,27.62
2022-08-03T08:15:15.220Z,27.55
2022-08-03T08:16:54.977Z,28.59
2022-08-03T08:17:58.691Z,28.16
2022-08-03T08:18:57.853Z,27.90
2022-08-03T08:20:32.083Z,27.75
2022-08-03T08:20:56.720Z,27.68
2022-08-03T08:22:02.448Z,27.65
2022-08-03T08:23:00.942Z,27.65
2022-08-03T08:23:59.096Z,27.66
2022-08-03T08:25:01.030Z,27.67
2022-08-03T08:26:03.497Z,27.69
2022-08-03T08:27:07.349Z,27.71
2022-08-03T08:28:29.587Z,27.74
2022-08-03T08:28:51.084Z,27.76
2022-08-03T08:29:54.561Z,27.78
2022-08-03T08:31:11.770Z,27.81
2022-08-03T08:31:49.083Z,27.83
2022-08-03T08:32:51.001Z,27.85
2022-08-03T08:34:03.658Z,27.88
2022-08-03T08:34:52.178Z,27.90
2022-08-03T08:35:49.083Z,27.92
2022-08-03T08:36:49.404Z,27.94
2022-08-03T08:37:56.451Z,27.96
2022-08-03T08:38:48.977Z,27.98
2022-08-03T08:39:50.961Z,28.00
2022-08-03T08:40:48.962Z,28.02
2022-08-03T08:41:56.501Z,28.04
2022-08-03T08:42:58.731Z,28.07
2022-08-03T08:44:00.012Z,28.09
2022-08-03T09:47:28.410Z,28.69
2022-08-03T09:48:27.000Z,28.27
2022-08-03T09:49:27.012Z,28.01
2022-08-03T09:50:27.929Z,27.89
2022-08-03T09:52:30.120Z,27.87
2022-08-03T09:52:49.253Z,27.91
2022-08-03T09:53:28.395Z,28.00
2022-08-03T09:54:26.902Z,28.12
2022-08-03T09:56:34.095Z,28.25
2022-08-03T09:56:35.966Z,28.39
2022-08-03T09:57:28.337Z,28.51
2022-08-03T09:58:33.228Z,28.64
2022-08-03T09:59:27.582Z,28.76
2022-08-03T10:00:26.887Z,28.88
2022-08-03T10:01:26.809Z,28.99
2022-08-03T10:02:27.794Z,29.09
2022-08-03T10:03:26.767Z,29.18
2022-08-03T10:04:26.754Z,29.26
2022-08-03T10:05:26.702Z,29.34
2022-08-03T10:06:28.952Z,29.41
2022-08-03T10:07:27.500Z,29.48
2022-08-03T10:08:26.810Z,29.54
2022-08-03T10:09:33.025Z,29.60
2022-08-03T10:10:31.199Z,29.66
2022-08-03T10:11:29.117Z,29.71
2022-08-03T10:12:26.756Z,29.76
2022-08-03T10:13:47.629Z,29.80
2022-08-03T10:14:26.875Z,29.84
2022-08-03T10:16:23.605Z,29.87
2022-08-03T10:16:27.842Z,29.91
2022-08-03T10:17:26.676Z,29.93
2022-08-03T10:18:26.557Z,29.96
2022-08-03T10:19:26.810Z,29.99
2022-08-03T10:20:26.560Z,30.01
2022-08-03T10:21:32.875Z,30.04
2022-08-03T10:22:26.577Z,30.07
2022-08-03T10:23:27.842Z,30.10
2022-08-03T10:24:26.487Z,30.13
2022-08-03T10:25:33.362Z,30.17
2022-08-03T10:26:28.045Z,30.20
2022-08-03T10:27:32.759Z,30.24
2022-08-03T10:28:26.381Z,30.28
2022-08-03T10:29:26.442Z,30.31
2022-08-03T10:30:26.411Z,30.34
2022-08-03T10:31:26.423Z,30.38
2022-08-03T10:32:32.846Z,30.41
2022-08-03T10:33:50.927Z,30.44
2022-08-03T10:34:27.348Z,30.47
2022-08-03T10:35:26.361Z,30.50
2022-08-03T10:36:26.318Z,30.52
2022-08-03T10:37:36.527Z,30.55
2022-08-03T10:38:26.307Z,30.58
2022-08-03T10:39:26.276Z,30.61
2022-08-03T10:40:47.530Z,30.64
2022-08-03T10:41:27.315Z,30.66
2022-08-03T10:42:32.597Z,30.67
2022-08-03T10:43:26.234Z,30.69
2022-08-03T10:44:26.232Z,30.70
2022-08-03T10:45:26.334Z,30.71
2022-08-03T10:46:26.199Z,30.72
2022-08-03T10:47:26.265Z,30.74
2022-08-03T10:48:32.586Z,30.76
2022-08-03T10:49:34.989Z,30.79
2022-08-03T10:50:27.779Z,30.82
2022-08-03T10:51:30.280Z,30.85
2022-08-03T10:52:32.956Z,30.89
2022-08-03T10:53:33.903Z,30.92
2022-08-03T10:54:26.152Z,30.95
2022-08-03T10:55:35.634Z,30.98
2022-08-03T10:56:45.886Z,31.00
2022-08-03T10:57:27.228Z,31.02
2022-08-03T10:58:32.400Z,31.03
2022-08-03T10:59:28.101Z,31.04
2022-08-03T11:00:26.071Z,31.05
2022-08-03T11:01:26.040Z,31.07
2022-08-03T11:02:28.102Z,31.09
2022-08-03T11:03:26.065Z,31.11
2022-08-03T11:04:32.324Z,31.13
2022-08-03T11:05:26.052Z,31.15
2022-08-03T11:06:25.985Z,31.18
2022-08-03T11:07:25.995Z,31.22
2022-08-03T11:08:26.028Z,31.25
2022-08-03T11:09:32.266Z,31.28
2022-08-03T11:10:26.887Z,31.31
2022-08-03T11:11:26.002Z,31.34
2022-08-03T11:12:30.855Z,31.37
2022-08-03T11:13:27.657Z,31.40
2022-08-03T11:14:26.240Z,31.44
2022-08-03T11:15:32.434Z,31.47
2022-08-03T11:16:27.282Z,31.50
2022-08-03T11:17:26.011Z,31.52
2022-08-03T11:18:27.408Z,31.54
2022-08-03T11:19:27.561Z,31.55
2022-08-03T11:20:25.850Z,31.57
2022-08-03T11:21:33.095Z,31.59
2022-08-03T11:22:25.807Z,31.60
2022-08-03T11:24:04.598Z,31.62
2022-08-03T11:24:26.756Z,31.64
2022-08-03T11:25:53.686Z,31.65
2022-08-03T11:26:33.282Z,31.67
2022-08-03T11:27:26.096Z,31.68
2022-08-03T11:28:25.729Z,31.68
2022-08-03T11:29:25.781Z,31.69
2022-08-03T11:30:27.546Z,31.69
2022-08-03T11:31:48.738Z,31.68
2022-08-03T11:32:32.977Z,31.68
2022-08-03T11:33:25.702Z,31.68
2022-08-03T11:34:26.693Z,31.67
2022-08-03T11:35:25.907Z,31.67
2022-08-03T11:36:32.029Z,31.68
2022-08-03T11:37:31.493Z,31.70
2022-08-03T11:38:33.410Z,31.73
2022-08-03T11:39:25.610Z,31.75
2022-08-03T11:40:25.551Z,31.79
2022-08-03T11:41:25.545Z,31.82
2022-08-03T11:42:25.654Z,31.87
2022-08-03T11:43:30.416Z,31.91
2022-08-03T11:44:33.339Z,31.95
2022-08-03T11:45:25.503Z,31.99
2022-08-03T11:46:28.408Z,32.02
2022-08-03T11:47:25.493Z,32.06
2022-08-03T11:48:25.609Z,32.08
2022-08-03T11:49:26.781Z,32.11
2022-08-03T11:50:31.768Z,32.14
2022-08-03T11:51:25.801Z,32.16
2022-08-03T11:52:27.084Z,32.19
2022-08-03T11:53:25.475Z,32.21
2022-08-03T11:54:25.462Z,32.24
2022-08-03T11:55:30.281Z,32.27
2022-08-03T11:56:36.999Z,32.29
2022-08-03T11:59:02.642Z,32.34
2022-08-03T11:59:17.314Z,32.32
2022-08-03T11:59:48.639Z,32.37
2022-08-03T12:00:26.037Z,32.39
2022-08-03T12:01:25.457Z,32.41
2022-08-03T12:02:31.932Z,32.44
2022-08-03T12:03:25.709Z,32.46
2022-08-03T12:04:26.192Z,32.48
2022-08-03T12:05:25.311Z,32.50
2022-08-03T12:06:26.500Z,32.52
2022-08-03T12:08:03.256Z,32.54
2022-08-03T12:11:33.921Z,33.66
2022-08-03T12:12:34.089Z,33.24
2022-08-03T12:14:45.692Z,32.96
2022-08-03T12:14:50.424Z,32.81
2022-08-03T12:15:36.319Z,32.73
2022-08-03T12:16:33.877Z,32.70
2022-08-03T12:17:40.314Z,32.69
2022-08-03T12:18:40.159Z,32.70
2022-08-03T12:19:35.314Z,32.73
2022-08-03T12:20:35.249Z,32.76
2022-08-03T12:21:34.061Z,32.81
2022-08-03T12:22:33.899Z,32.85
2022-08-03T12:23:40.162Z,32.91
2022-08-03T12:24:34.041Z,32.96
2022-08-03T12:25:39.322Z,33.02
2022-08-03T12:26:35.633Z,33.08
2022-08-03T12:27:34.148Z,33.14
2022-08-03T12:28:37.810Z,33.20
2022-08-03T12:29:40.138Z,33.26
2022-08-03T12:30:34.614Z,33.31
2022-08-03T12:31:33.716Z,33.36
2022-08-03T12:32:34.021Z,33.41
2022-08-03T12:33:34.015Z,33.45
2022-08-03T12:34:33.700Z,33.50
2022-08-03T12:35:40.008Z,33.54
2022-08-03T12:36:35.193Z,33.59
2022-08-03T12:37:34.005Z,33.64
2022-08-03T12:38:36.436Z,33.69
2022-08-03T12:39:33.575Z,33.74
2022-08-03T12:40:34.210Z,33.79
2022-08-03T12:41:41.042Z,33.83
2022-08-03T12:42:34.960Z,33.86
2022-08-03T12:43:39.464Z,33.90
2022-08-03T12:44:35.170Z,33.94
2022-08-03T12:45:33.566Z,33.99
2022-08-03T12:46:43.959Z,34.03
2022-08-03T12:47:35.101Z,34.08
2022-08-03T12:48:33.824Z,34.13
2022-08-03T12:49:33.505Z,34.18
2022-08-03T12:50:35.059Z,34.23
2022-08-03T12:51:33.530Z,34.28
2022-08-03T12:52:40.154Z,34.33
2022-08-03T12:53:33.503Z,34.38
2022-08-03T12:54:37.437Z,34.43
2022-08-03T12:55:57.311Z,34.48
2022-08-03T12:56:35.447Z,34.52
2022-08-03T12:57:41.267Z,34.55
2022-08-03T12:58:33.399Z,34.58
2022-08-03T12:59:35.145Z,34.59
2022-08-03T13:00:33.358Z,34.58
2022-08-03T13:01:34.498Z,34.56
2022-08-03T13:02:40.787Z,34.54
2022-08-03T13:03:42.396Z,34.51
2022-08-03T13:04:34.801Z,34.49
2022-08-03T13:05:34.417Z,34.46
2022-08-03T13:06:33.516Z,34.44
2022-08-03T13:07:39.864Z,34.43
2022-08-03T13:08:34.790Z,34.43
2022-08-03T13:09:33.651Z,34.43
2022-08-03T13:10:33.237Z,34.43
2022-08-03T13:11:55.929Z,34.44
2022-08-03T13:12:34.220Z,34.44
2022-08-03T13:13:39.842Z,34.44
2022-08-03T13:14:33.230Z,34.45
2022-08-03T13:15:33.537Z,34.47
2022-08-03T13:16:34.916Z,34.49
2022-08-03T13:17:34.030Z,34.52
2022-08-03T13:18:56.507Z,34.55
2022-08-03T13:19:33.135Z,34.59
2022-08-03T13:20:33.119Z,34.63
2022-08-03T13:21:33.099Z,34.67
2022-08-03T13:22:38.106Z,34.72
2022-08-03T13:23:54.069Z,34.76
2022-08-03T13:24:40.505Z,34.81
2022-08-03T13:25:35.353Z,34.85
2022-08-03T13:26:33.280Z,34.89
2022-08-03T13:28:03.422Z,34.93
2022-08-03T13:28:34.900Z,34.95
2022-08-03T13:29:44.056Z,34.97
2022-08-03T13:30:55.672Z,34.99
2022-08-03T13:31:33.958Z,35.01
2022-08-03T13:32:35.072Z,35.03
2022-08-03T13:33:33.127Z,35.05
2022-08-03T13:34:40.248Z,35.08
2022-08-03T13:35:32.955Z,35.11
2022-08-03T13:36:52.954Z,35.15
2022-08-03T13:37:33.993Z,35.19
2022-08-03T13:38:33.242Z,35.23
2022-08-03T13:39:57.476Z,35.27
2022-08-03T13:40:55.720Z,35.30
2022-08-03T13:41:33.363Z,35.33
2022-08-03T13:42:32.816Z,35.35
2022-08-03T13:43:36.825Z,35.36
2022-08-03T13:44:33.927Z,35.36
2022-08-03T13:45:39.048Z,35.36
2022-08-03T13:46:53.766Z,35.34
2022-08-03T13:47:32.812Z,35.33
2022-08-03T13:48:35.780Z,35.30
2022-08-03T13:49:38.583Z,35.28
2022-08-03T13:50:42.888Z,35.26
2022-08-03T13:51:34.427Z,35.24
2022-08-03T13:52:32.787Z,35.23
2022-08-03T13:53:32.741Z,35.23
2022-08-03T13:54:32.708Z,35.25
2022-08-03T13:55:32.719Z,35.27
2022-08-03T13:56:39.034Z,35.32
2022-08-03T13:58:06.314Z,35.37
2022-08-03T13:58:33.619Z,35.43
2022-08-03T13:59:32.829Z,35.50
2022-08-03T14:00:32.678Z,35.56
2022-08-03T14:01:55.004Z,35.62
2022-08-03T14:02:34.142Z,35.67